createdAt,value
2022-08-29T00:01:10.764Z,4.90
2022-08-29T00:03:37.957Z,4.40
2022-08-29T00:06:06.875Z,5.17
2022-08-29T00:08:34.014Z,4.20
2022-08-29T00:11:00.841Z,4.50
2022-08-29T00:13:27.875Z,5.10
2022-08-29T00:15:54.937Z,5.37
2022-08-29T00:18:21.842Z,5.27
2022-08-29T00:20:49.328Z,4.97
2022-08-29T00:23:16.705Z,5.43
2022-08-29T00:25:43.666Z,5.50
2022-08-29T00:28:11.040Z,5.23
2022-08-29T00:30:38.521Z,5.27
2022-08-29T00:33:05.445Z,6.40
2022-08-29T00:35:36.154Z,6.20
2022-08-29T00:38:05.567Z,5.80
2022-08-29T00:40:39.819Z,6.13
2022-08-29T00:43:07.854Z,5.60
2022-08-29T00:45:36.805Z,5.60
2022-08-29T00:48:13.093Z,6.07
2022-08-29T00:50:47.989Z,7.40
2022-08-29T00:53:17.891Z,6.23
2022-08-29T00:55:50.325Z,6.97
2022-08-29T00:58:40.460Z,6.73
2022-08-29T01:01:07.477Z,5.80
2022-08-29T01:03:36.938Z,6.20
2022-08-29T01:06:10.304Z,6.73
2022-08-29T01:08:37.292Z,6.17
2022-08-29T01:11:23.136Z,6.80
2022-08-29T01:13:53.494Z,6.07
2022-08-29T01:16:58.855Z,8.20
2022-08-29T01:19:34.764Z,6.93
2022-08-29T01:22:10.208Z,6.77
2022-08-29T01:24:42.251Z,6.83
2022-08-29T01:27:11.170Z,6.80
2022-08-29T01:29:38.486Z,6.43
2022-08-29T01:32:06.315Z,7.03
2022-08-29T01:34:33.196Z,6.80
2022-08-29T01:37:06.960Z,5.73
2022-08-29T01:39:37.838Z,6.10
2022-08-29T01:42:11.179Z,6.07
2022-08-29T01:44:39.380Z,5.63
2022-08-29T01:47:07.901Z,6.57
2022-08-29T01:49:40.679Z,6.40
2022-08-29T01:52:08.075Z,6.03
2022-08-29T01:54:35.321Z,5.57
2022-08-29T01:57:02.685Z,6.87
2022-08-29T01:59:31.044Z,5.90
2022-08-29T02:02:18.192Z,6.93
2022-08-29T02:04:47.391Z,6.20
2022-08-29T02:07:17.682Z,6.63
2022-08-29T02:09:45.920Z,6.27
2022-08-29T02:12:14.762Z,7.37
2022-08-29T02:14:41.980Z,7.03
2022-08-29T02:17:09.732Z,7.00
2022-08-29T02:19:38.939Z,6.80
2022-08-29T02:22:07.708Z,7.33
2022-08-29T02:24:35.099Z,9.30
2022-08-29T02:27:01.967Z,9.77
2022-08-29T02:29:36.969Z,9.00
2022-08-29T02:32:07.179Z,8.93
2022-08-29T02:34:35.234Z,9.50
2022-08-29T02:37:02.510Z,8.87
2022-08-29T02:39:29.672Z,9.13
2022-08-29T02:41:57.267Z,9.10
2022-08-29T02:44:24.121Z,8.60
2022-08-29T02:46:51.059Z,9.10
2022-08-29T02:49:18.059Z,9.83
2022-08-29T02:51:45.214Z,8.87
2022-08-29T02:54:12.805Z,8.80
2022-08-29T02:56:41.192Z,11.40
2022-08-29T02:59:08.849Z,11.23
2022-08-29T03:01:38.685Z,12.10
2022-08-29T03:04:06.039Z,11.87
2022-08-29T03:06:33.288Z,12.77
2022-08-29T03:09:00.552Z,13.33
2022-08-29T03:11:28.743Z,12.40
2022-08-29T03:13:57.424Z,10.90
2022-08-29T03:16:25.584Z,12.17
2022-08-29T03:18:52.698Z,13.53
2022-08-29T03:21:22.210Z,12.70
2022-08-29T03:23:50.447Z,12.80
2022-08-29T03:26:18.245Z,13.03
2022-08-29T03:28:45.258Z,13.10
2022-08-29T03:31:12.278Z,12.77
2022-08-29T03:33:39.375Z,13.20
2022-08-29T03:36:14.279Z,13.17
2022-08-29T03:38:43.753Z,12.77
2022-08-29T03:41:11.412Z,14.27
2022-08-29T03:43:38.810Z,14.80
2022-08-29T03:46:05.811Z,13.80
2022-08-29T03:48:33.876Z,15.10
2022-08-29T03:51:00.864Z,14.57
2022-08-29T03:53:27.733Z,13.23
2022-08-29T03:55:54.868Z,14.60
2022-08-29T03:58:21.807Z,12.90
2022-08-29T04:00:48.734Z,14.50
2022-08-29T04:03:15.789Z,14.33
2022-08-29T04:05:43.160Z,14.50
2022-08-29T04:08:10.073Z,13.97
2022-08-29T04:10:38.793Z,13.00
2022-08-29T04:13:07.328Z,13.20
2022-08-29T04:15:35.888Z,14.87
2022-08-29T04:18:06.895Z,15.10
2022-08-29T04:20:36.532Z,14.63
2022-08-29T04:23:04.234Z,15.37
2022-08-29T04:25:37.479Z,15.17
2022-08-29T04:28:06.974Z,16.40
2022-08-29T04:30:35.012Z,16.77
2022-08-29T04:33:02.168Z,16.10
2022-08-29T04:35:29.094Z,18.40
2022-08-29T04:37:56.793Z,15.90
2022-08-29T04:40:23.867Z,15.33
2022-08-29T04:42:50.861Z,15.73
2022-08-29T04:45:21.081Z,16.80
2022-08-29T04:47:48.036Z,19.60
2022-08-29T04:50:18.293Z,17.43
2022-08-29T04:52:45.327Z,16.60
2022-08-29T04:55:15.363Z,14.50
2022-08-29T04:57:45.081Z,13.43
2022-08-29T05:00:15.262Z,13.40
2022-08-29T05:02:43.402Z,12.40
2022-08-29T05:05:12.653Z,9.50
2022-08-29T05:07:40.216Z,9.23
2022-08-29T05:10:10.743Z,8.53
2022-08-29T05:12:37.910Z,7.33
2022-08-29T05:15:06.711Z,5.80
2022-08-29T05:17:33.930Z,5.10
2022-08-29T05:20:01.156Z,5.57
2022-08-29T05:22:28.204Z,4.83
2022-08-29T05:24:57.045Z,4.63
2022-08-29T05:27:24.210Z,4.27
2022-08-29T05:29:52.019Z,3.40
2022-08-29T05:32:21.446Z,4.10
2022-08-29T05:34:49.659Z,3.43
2022-08-29T05:37:19.518Z,3.30
2022-08-29T05:39:47.437Z,3.83
2022-08-29T05:42:17.101Z,3.63
2022-08-29T05:44:44.448Z,3.03
2022-08-29T05:47:13.365Z,3.23
2022-08-29T05:49:41.939Z,3.63
2022-08-29T05:52:08.907Z,3.30
2022-08-29T05:54:38.285Z,3.20
2022-08-29T05:57:06.940Z,3.40
2022-08-29T05:59:35.394Z,3.27
2022-08-29T06:02:02.298Z,3.80
2022-08-29T06:04:29.256Z,3.30
2022-08-29T06:06:56.221Z,4.00
2022-08-29T06:09:23.256Z,3.83
2022-08-29T06:11:53.232Z,3.87
2022-08-29T06:14:20.420Z,4.73
2022-08-29T06:16:47.347Z,4.47
2022-08-29T06:19:14.472Z,3.63
2022-08-29T06:21:41.666Z,4.40
2022-08-29T06:24:08.541Z,3.80
2022-08-29T06:26:36.014Z,4.60
2022-08-29T06:29:08.389Z,4.73
2022-08-29T06:31:35.640Z,4.10
2022-08-29T06:34:07.775Z,4.73
2022-08-29T06:36:37.098Z,4.57
2022-08-29T06:39:07.460Z,5.17
2022-08-29T06:41:35.974Z,4.50
2022-08-29T06:44:03.314Z,4.13
2022-08-29T06:46:39.163Z,5.10
2022-08-29T06:49:08.952Z,5.30
2022-08-29T06:51:37.772Z,6.03
2022-08-29T06:54:07.508Z,5.37
2022-08-29T06:56:36.645Z,5.70
2022-08-29T06:59:05.041Z,5.60
2022-08-29T07:01:32.119Z,6.03
2022-08-29T07:04:01.303Z,5.30
2022-08-29T07:06:28.601Z,5.77
2022-08-29T07:08:56.553Z,5.83
2022-08-29T07:11:25.728Z,5.80
2022-08-29T07:13:52.593Z,6.00
2022-08-29T07:16:19.786Z,5.17
2022-08-29T07:18:47.254Z,5.40
2022-08-29T07:21:20.909Z,6.13
2022-08-29T07:23:49.401Z,6.70
2022-08-29T07:26:17.843Z,7.17
2022-08-29T07:28:47.988Z,6.47
2022-08-29T07:31:15.131Z,6.67
2022-08-29T07:33:42.157Z,6.23
2022-08-29T07:36:09.505Z,5.77
2022-08-29T07:38:36.973Z,7.13
2022-08-29T07:41:06.758Z,6.60
2022-08-29T07:43:34.166Z,6.53
2022-08-29T07:46:11.689Z,6.47
2022-08-29T07:48:39.568Z,6.27
2022-08-29T07:51:10.671Z,5.70
2022-08-29T07:53:38.337Z,5.50
2022-08-29T07:56:11.897Z,6.20
2022-08-29T07:58:39.723Z,6.10
2022-08-29T08:01:07.179Z,6.17
2022-08-29T08:03:37.176Z,7.63
2022-08-29T08:06:07.226Z,5.40
2022-08-29T08:08:34.574Z,5.30
2022-08-29T08:11:04.708Z,5.60
2022-08-29T08:13:31.988Z,5.47
2022-08-29T08:15:59.465Z,5.43
2022-08-29T08:18:26.526Z,5.03
2022-08-29T08:20:53.352Z,6.00
2022-08-29T08:23:20.474Z,6.00
2022-08-29T08:25:47.508Z,4.97
2022-08-29T08:28:14.878Z,4.83
2022-08-29T08:30:41.901Z,5.63
2022-08-29T08:33:09.614Z,5.03
2022-08-29T08:35:42.026Z,5.20
2022-08-29T08:38:09.469Z,4.97
2022-08-29T08:40:42.077Z,6.10
2022-08-29T08:43:13.651Z,7.17
2022-08-29T08:45:46.277Z,7.27
2022-08-29T08:48:33.565Z,6.67
2022-08-29T08:51:36.717Z,8.10
2022-08-29T08:54:13.051Z,7.50
2022-08-29T08:56:49.002Z,8.57
2022-08-29T08:59:16.305Z,8.50
2022-08-29T09:02:14.731Z,8.50
2022-08-29T09:05:19.569Z,7.43
2022-08-29T09:08:01.802Z,8.30
2022-08-29T09:10:54.390Z,7.60
2022-08-29T09:13:46.688Z,7.63
2022-08-29T09:16:27.465Z,7.63
2022-08-29T09:18:58.645Z,7.33
2022-08-29T09:21:42.450Z,7.13
2022-08-29T09:24:30.575Z,6.20
2022-08-29T09:26:57.454Z,7.30
2022-08-29T09:29:30.410Z,6.63
2022-08-29T09:32:10.358Z,6.10
2022-08-29T09:35:07.548Z,7.37
2022-08-29T09:37:34.967Z,5.10
2022-08-29T09:40:12.612Z,5.37
2022-08-29T09:42:51.650Z,5.60
2022-08-29T09:45:25.093Z,3.63
2022-08-29T09:48:15.975Z,4.13
2022-08-29T09:50:43.818Z,3.60
2022-08-29T09:53:24.914Z,3.57
2022-08-29T09:55:52.997Z,3.17
2022-08-29T09:58:20.052Z,3.00
2022-08-29T10:01:07.413Z,3.30
2022-08-29T10:03:37.830Z,3.50
2022-08-29T10:06:08.562Z,2.90
2022-08-29T10:08:38.459Z,3.23
2022-08-29T10:11:20.030Z,3.10
2022-08-29T10:13:57.845Z,2.63
2022-08-29T10:16:33.402Z,2.70
2022-08-29T10:19:07.579Z,2.90
2022-08-29T10:21:47.268Z,2.77
2022-08-29T10:25:03.813Z,3.23
2022-08-29T10:27:53.643Z,3.00
2022-08-29T10:30:29.536Z,3.20
2022-08-29T10:33:17.541Z,2.50
2022-08-29T10:35:55.461Z,2.57
2022-08-29T10:38:59.124Z,2.83
2022-08-29T10:42:02.651Z,2.30
2022-08-29T10:44:50.452Z,2.50
2022-08-29T10:47:38.482Z,2.30
2022-08-29T10:50:27.665Z,2.80
2022-08-29T10:53:10.014Z,2.40
2022-08-29T10:55:57.238Z,2.57
2022-08-29T10:58:38.940Z,2.53
2022-08-29T11:01:17.542Z,2.63
2022-08-29T11:04:02.732Z,2.40
2022-08-29T11:06:34.369Z,2.10
2022-08-29T11:09:18.596Z,2.60
2022-08-29T11:12:17.800Z,2.50
2022-08-29T11:14:59.812Z,2.30
2022-08-29T11:17:32.240Z,2.47
2022-08-29T11:20:21.702Z,2.27
2022-08-29T11:22:52.149Z,1.63
2022-08-29T11:25:20.742Z,1.80
2022-08-29T11:28:17.893Z,2.03
2022-08-29T11:31:38.811Z,2.00
2022-08-29T11:34:20.611Z,2.13
2022-08-29T11:37:02.305Z,2.10
2022-08-29T11:39:41.730Z,2.20
2022-08-29T11:42:13.334Z,2.20
2022-08-29T11:44:46.229Z,1.77
2022-08-29T11:47:56.917Z,2.30
2022-08-29T11:50:34.137Z,2.33
2022-08-29T11:53:23.142Z,2.10
2022-08-29T11:56:12.585Z,2.50
2022-08-29T11:58:43.382Z,2.13
2022-08-29T12:01:35.806Z,2.10
2022-08-29T12:04:05.871Z,2.17
2022-08-29T12:06:56.883Z,2.63
2022-08-29T12:09:46.381Z,2.73
2022-08-29T12:12:37.294Z,2.47
2022-08-29T12:15:27.325Z,2.50
2022-08-29T12:18:02.361Z,3.00
2022-08-29T12:20:30.454Z,3.00
2022-08-29T12:23:06.009Z,2.30
2022-08-29T12:25:44.880Z,2.13
2022-08-29T12:28:21.059Z,2.40
2022-08-29T12:30:51.459Z,2.63
2022-08-29T12:33:54.898Z,2.73
2022-08-29T12:36:27.533Z,1.70
2022-08-29T12:39:22.956Z,1.97
2022-08-29T12:42:04.840Z,2.60
2022-08-29T12:44:35.851Z,2.00
2022-08-29T12:47:08.409Z,2.50
2022-08-29T12:49:43.408Z,2.07
2022-08-29T12:52:35.526Z,1.80
2022-08-29T12:55:28.732Z,1.70
2022-08-29T12:57:57.122Z,2.40
2022-08-29T13:00:31.136Z,2.17
2022-08-29T13:03:17.385Z,1.93
2022-08-29T13:05:45.970Z,2.07
2022-08-29T13:08:26.190Z,2.57
2022-08-29T13:11:00.478Z,2.17
2022-08-29T13:13:28.450Z,1.93
2022-08-29T13:16:00.412Z,1.67
2022-08-29T13:18:28.867Z,1.97
2022-08-29T13:21:07.883Z,2.03
2022-08-29T13:23:46.015Z,2.03
2022-08-29T13:26:14.149Z,1.83
2022-08-29T13:29:10.326Z,2.03
2022-08-29T13:31:38.807Z,1.57
2022-08-29T13:34:19.690Z,1.73
2022-08-29T13:37:02.030Z,2.33
2022-08-29T13:39:35.135Z,1.70
2022-08-29T13:42:15.746Z,1.53
2022-08-29T13:44:45.595Z,2.00
2022-08-29T13:47:17.454Z,1.57
2022-08-29T13:49:44.390Z,2.30
2022-08-29T13:52:12.429Z,1.73
2022-08-29T13:54:42.301Z,1.90
2022-08-29T13:57:15.342Z,1.80
2022-08-29T13:59:42.248Z,2.03
2022-08-29T14:02:10.810Z,1.77
2022-08-29T14:04:40.687Z,2.20
2022-08-29T14:07:25.488Z,1.67
2022-08-29T14:09:52.445Z,2.10
2022-08-29T14:12:19.743Z,2.30
2022-08-29T14:14:48.435Z,2.23
2022-08-29T14:17:18.706Z,1.77
2022-08-29T14:19:46.359Z,1.97
2022-08-29T14:22:13.427Z,2.30
2022-08-29T14:24:41.272Z,1.80
2022-08-29T14:27:09.619Z,2.40
2022-08-29T14:29:37.131Z,2.07
2022-08-29T14:32:04.296Z,2.07
2022-08-29T14:34:33.008Z,2.37
2022-08-29T14:37:01.198Z,1.80
2022-08-29T14:39:28.560Z,1.90
2022-08-29T14:41:55.862Z,1.70
2022-08-29T14:44:23.572Z,1.60
2022-08-29T14:46:51.634Z,2.13
2022-08-29T14:49:19.434Z,2.00
2022-08-29T14:51:46.698Z,2.10
2022-08-29T14:54:13.569Z,1.67
2022-08-29T14:56:48.279Z,1.70
2022-08-29T14:59:16.598Z,1.40
2022-08-29T15:01:43.486Z,2.20
2022-08-29T15:04:11.146Z,2.00
2022-08-29T15:06:38.623Z,1.73
2022-08-29T15:09:05.712Z,1.70
2022-08-29T15:11:32.569Z,2.50
2022-08-29T15:14:04.453Z,2.17
2022-08-29T15:16:32.811Z,1.73
2022-08-29T15:21:47.744Z,1.73
2022-08-29T15:24:14.612Z,1.87
2022-08-29T15:26:43.912Z,2.00
2022-08-29T15:29:11.407Z,1.87
2022-08-29T15:31:38.336Z,1.73
2022-08-29T15:34:06.029Z,1.93
2022-08-29T15:36:33.926Z,2.53
2022-08-29T15:39:04.924Z,1.80
2022-08-29T15:41:35.242Z,2.03
2022-08-29T15:44:03.146Z,2.23
2022-08-29T15:46:30.200Z,1.63
2022-08-29T15:48:57.275Z,2.70
2022-08-29T15:51:24.159Z,2.10
2022-08-29T15:53:51.152Z,2.57
2022-08-29T15:56:18.150Z,1.53
2022-08-29T15:58:45.095Z,1.90
2022-08-29T16:01:12.354Z,2.10
2022-08-29T16:03:39.354Z,2.60
2022-08-29T16:06:06.458Z,1.50
2022-08-29T16:08:33.678Z,1.50
2022-08-29T16:11:00.922Z,1.70
2022-08-29T16:13:27.766Z,1.90
2022-08-29T16:15:54.972Z,2.00
2022-08-29T16:18:22.199Z,1.60
2022-08-29T16:20:49.067Z,1.93
2022-08-29T16:23:17.081Z,1.80
2022-08-29T16:25:44.997Z,1.77
2022-08-29T16:28:11.944Z,1.87
2022-08-29T16:30:44.486Z,1.47
2022-08-29T16:33:13.865Z,1.57
2022-08-29T16:35:40.696Z,1.40
2022-08-29T16:38:07.597Z,1.80
2022-08-29T16:40:34.682Z,1.40
2022-08-29T16:43:03.239Z,1.50
2022-08-29T16:45:31.085Z,1.53
2022-08-29T16:47:58.152Z,2.10
2022-08-29T16:50:26.240Z,1.57
2022-08-29T16:52:53.560Z,1.40
2022-08-29T16:55:21.310Z,1.80
2022-08-29T16:58:08.180Z,1.60
2022-08-29T17:00:35.367Z,1.80
2022-08-29T17:03:02.256Z,1.90
2022-08-29T17:05:29.230Z,1.57
2022-08-29T17:07:56.037Z,1.57
2022-08-29T17:10:22.936Z,1.30
2022-08-29T17:12:49.821Z,1.47
2022-08-29T17:15:16.856Z,1.50
2022-08-29T17:17:43.843Z,1.73
2022-08-29T17:20:11.797Z,1.57
2022-08-29T17:22:39.401Z,2.00
2022-08-29T17:25:06.525Z,1.50
2022-08-29T17:27:33.560Z,1.80
2022-08-29T17:30:00.426Z,2.03
2022-08-29T17:32:27.364Z,1.60
2022-08-29T17:34:54.269Z,2.10
2022-08-29T17:37:21.140Z,1.50
2022-08-29T17:39:47.980Z,1.80
2022-08-29T17:42:14.908Z,2.20
2022-08-29T17:44:41.771Z,1.73
2022-08-29T17:47:08.756Z,1.50
2022-08-29T17:49:35.596Z,1.60
2022-08-29T17:52:02.697Z,1.80
2022-08-29T17:54:29.663Z,1.90
2022-08-29T17:56:59.230Z,2.20
2022-08-29T17:59:33.787Z,1.97
2022-08-29T18:02:01.661Z,1.73
2022-08-29T18:04:29.325Z,1.83
2022-08-29T18:06:57.105Z,1.60
2022-08-29T18:09:24.970Z,1.67
2022-08-29T18:11:53.549Z,1.80
2022-08-29T18:14:23.775Z,2.03
2022-08-29T18:16:51.778Z,1.63
2022-08-29T18:19:19.099Z,1.80
2022-08-29T18:21:46.004Z,1.87
2022-08-29T18:24:14.934Z,2.50
2022-08-29T18:26:43.398Z,1.90
2022-08-29T18:29:10.444Z,2.33
2022-08-29T18:31:37.376Z,2.17
2022-08-29T18:34:05.470Z,2.20
2022-08-29T18:36:35.876Z,1.70
2022-08-29T18:39:06.968Z,1.70
2022-08-29T18:41:33.937Z,2.07
2022-08-29T18:44:00.791Z,2.30
2022-08-29T18:46:28.207Z,2.13
2022-08-29T18:48:55.291Z,2.17
2022-08-29T18:51:22.349Z,2.27
2022-08-29T18:53:49.546Z,2.00
2022-08-29T18:56:16.432Z,1.97
2022-08-29T18:58:44.617Z,2.17
2022-08-29T19:01:27.730Z,2.63
2022-08-29T19:04:00.171Z,2.53
2022-08-29T19:06:27.776Z,2.20
2022-08-29T19:08:56.596Z,1.97
2022-08-29T19:11:24.747Z,2.53
2022-08-29T19:13:52.513Z,2.50
2022-08-29T19:16:21.404Z,2.37
2022-08-29T19:18:48.524Z,2.63
2022-08-29T19:21:15.725Z,2.70
2022-08-29T19:23:52.924Z,2.17
2022-08-29T19:26:24.582Z,2.60
2022-08-29T19:28:53.174Z,3.03
2022-08-29T19:31:22.875Z,2.90
2022-08-29T19:33:49.863Z,2.20
2022-08-29T19:36:17.583Z,2.40
2022-08-29T19:38:44.542Z,2.73
2022-08-29T19:41:12.286Z,2.67
2022-08-29T19:43:41.017Z,2.80
2022-08-29T19:46:18.122Z,2.50
2022-08-29T19:48:48.602Z,2.40
2022-08-29T19:51:18.973Z,2.57
2022-08-29T19:53:48.610Z,2.67
2022-08-29T19:56:17.925Z,3.20
2022-08-29T19:58:44.877Z,3.10
2022-08-29T20:01:12.007Z,2.60
2022-08-29T20:03:41.082Z,3.00
2022-08-29T20:06:09.064Z,2.50
2022-08-29T20:08:41.837Z,3.00
2022-08-29T20:11:14.292Z,2.83
2022-08-29T20:13:47.617Z,3.23
2022-08-29T20:16:21.476Z,2.97
2022-08-29T20:18:50.201Z,3.33
2022-08-29T20:21:19.198Z,3.23
2022-08-29T20:23:49.095Z,2.77
2022-08-29T20:26:17.195Z,2.97
2022-08-29T20:28:44.134Z,3.20
2022-08-29T20:31:11.088Z,2.90
2022-08-29T20:33:41.279Z,3.20
2022-08-29T20:36:26.998Z,2.80
2022-08-29T20:38:54.327Z,3.13
2022-08-29T20:41:21.870Z,3.30
2022-08-29T20:43:48.892Z,3.20
2022-08-29T20:46:15.945Z,2.80
2022-08-29T20:48:42.828Z,2.77
2022-08-29T20:51:10.853Z,3.40
2022-08-29T20:53:39.252Z,2.73
2022-08-29T20:56:06.610Z,2.60
2022-08-29T20:58:34.566Z,2.40
2022-08-29T21:01:02.496Z,3.30
2022-08-29T21:03:47.903Z,3.27
2022-08-29T21:06:18.575Z,2.60
2022-08-29T21:08:45.431Z,3.43
2022-08-29T21:11:14.472Z,3.00
2022-08-29T21:13:43.279Z,3.07
2022-08-29T21:16:11.092Z,3.40
2022-08-29T21:18:38.034Z,2.80
2022-08-29T21:21:05.727Z,3.17
2022-08-29T21:23:33.219Z,2.80
2022-08-29T21:26:01.901Z,2.70
2022-08-29T21:28:31.675Z,2.80
2022-08-29T21:31:12.866Z,2.80
2022-08-29T21:33:42.525Z,2.67
2022-08-29T21:36:22.723Z,2.63
2022-08-29T21:38:54.193Z,3.17
2022-08-29T21:41:22.222Z,2.87
2022-08-29T21:43:49.416Z,2.90
2022-08-29T21:46:18.824Z,3.47
2022-08-29T21:48:46.646Z,2.93
2022-08-29T21:51:18.064Z,3.30
2022-08-29T21:53:47.451Z,2.80
2022-08-29T21:56:14.391Z,3.73
2022-08-29T21:58:41.303Z,3.40
2022-08-29T22:01:11.264Z,3.03
2022-08-29T22:03:39.598Z,2.87
2022-08-29T22:06:09.241Z,3.10
2022-08-29T22:08:38.258Z,4.10
2022-08-29T22:11:18.282Z,3.63
2022-08-29T22:13:45.669Z,2.40
2022-08-29T22:16:31.049Z,3.47
2022-08-29T22:18:59.382Z,3.20
2022-08-29T22:21:27.445Z,3.10
2022-08-29T22:23:55.210Z,3.10
2022-08-29T22:26:22.238Z,3.23
2022-08-29T22:28:49.425Z,4.60
2022-08-29T22:31:16.968Z,3.47
2022-08-29T22:33:44.059Z,2.70
2022-08-29T22:36:12.898Z,2.83
2022-08-29T22:38:41.491Z,3.00
2022-08-29T22:41:23.886Z,3.40
2022-08-29T22:44:16.449Z,3.30
2022-08-29T22:46:43.038Z,3.60
2022-08-29T22:49:10.224Z,3.00
2022-08-29T22:51:37.051Z,3.20
2022-08-29T22:54:22.759Z,3.33
2022-08-29T22:56:49.776Z,3.20
2022-08-29T22:59:19.514Z,3.10
2022-08-29T23:01:46.519Z,4.00
2022-08-29T23:04:13.618Z,3.07
2022-08-29T23:06:40.492Z,3.20
2022-08-29T23:09:07.459Z,3.80
2022-08-29T23:11:34.860Z,4.10
2022-08-29T23:14:02.262Z,3.80
2022-08-29T23:16:29.330Z,3.33
2022-08-29T23:18:56.193Z,3.10
2022-08-29T23:21:23.143Z,3.57
2022-08-29T23:23:51.072Z,3.70
2022-08-29T23:26:18.981Z,3.27
2022-08-29T23:28:46.005Z,3.93
2022-08-29T23:31:14.635Z,3.43
2022-08-29T23:33:41.555Z,3.40
2022-08-29T23:36:08.823Z,3.67
2022-08-29T23:38:36.677Z,3.50
2022-08-29T23:41:04.360Z,3.60
2022-08-29T23:43:36.896Z,4.07
2022-08-29T23:46:04.561Z,4.03
2022-08-29T23:48:32.278Z,3.43
2022-08-29T23:51:00.167Z,4.20
2022-08-29T23:53:27.277Z,4.93
2022-08-29T23:55:54.103Z,3.93
2022-08-29T23:58:21.074Z,3.43
